createdAt,value
2018-05-31T00:01:29.374Z,99627.32
2018-05-31T00:03:56.965Z,99626.66
2018-05-31T00:06:24.602Z,99630.72
2018-05-31T00:08:52.180Z,99631.72
2018-05-31T00:11:19.833Z,99635.48
2018-05-31T00:13:47.457Z,99630.77
2018-05-31T00:16:15.123Z,99632.23
2018-05-31T00:18:43.562Z,99627.14
2018-05-31T00:21:11.561Z,99618.73
2018-05-31T00:23:39.226Z,99627.77
2018-05-31T00:26:06.908Z,99627.83
2018-05-31T00:28:34.569Z,99627.12
2018-05-31T00:31:02.195Z,99626.91
2018-05-31T00:33:29.746Z,99629.00
2018-05-31T00:35:57.397Z,99621.20
2018-05-31T00:38:24.999Z,99637.85
2018-05-31T00:40:52.673Z,99633.01
2018-05-31T00:43:20.251Z,99628.22
2018-05-31T00:45:47.881Z,99622.95
2018-05-31T00:48:15.446Z,99622.13
2018-05-31T00:50:43.073Z,99622.13
2018-05-31T00:53:10.697Z,99630.30
2018-05-31T00:55:50.080Z,99623.75
2018-05-31T00:58:17.745Z,99624.28
2018-05-31T01:00:45.388Z,99625.66
2018-05-31T01:03:12.980Z,99624.28
2018-05-31T01:05:40.570Z,99628.25
2018-05-31T01:08:08.147Z,99621.99
2018-05-31T01:10:35.803Z,99620.70
2018-05-31T01:13:03.410Z,99623.58
2018-05-31T01:15:31.026Z,99630.38
2018-05-31T01:17:58.573Z,99636.12
2018-05-31T01:20:26.208Z,99637.63
2018-05-31T01:22:53.750Z,99634.82
2018-05-31T01:25:21.325Z,99632.28
2018-05-31T01:27:48.917Z,99627.52
2018-05-31T01:30:16.537Z,99630.44
2018-05-31T01:32:44.098Z,99631.09
2018-05-31T01:35:11.654Z,99631.67
2018-05-31T01:37:39.249Z,99629.96
2018-05-31T01:40:06.823Z,99627.87
2018-05-31T01:42:34.430Z,99622.53
2018-05-31T01:45:02.006Z,99621.58
2018-05-31T01:47:29.586Z,99619.66
2018-05-31T01:49:57.503Z,99618.31
2018-05-31T01:52:25.131Z,99617.52
2018-05-31T01:54:52.774Z,99615.38
2018-05-31T01:57:20.373Z,99618.85
2018-05-31T01:59:47.984Z,99626.90
2018-05-31T02:02:15.566Z,99629.23
2018-05-31T02:04:43.157Z,99631.19
2018-05-31T02:07:10.765Z,99627.72
2018-05-31T02:09:38.369Z,99628.67
2018-05-31T02:12:05.996Z,99627.30
2018-05-31T02:14:33.610Z,99619.84
2018-05-31T02:17:01.260Z,99619.45
2018-05-31T02:19:28.840Z,99613.16
2018-05-31T02:21:56.452Z,99613.13
2018-05-31T02:24:24.071Z,99615.37
2018-05-31T02:26:51.715Z,99608.41
2018-05-31T02:29:19.370Z,99608.52
2018-05-31T02:31:47.040Z,99604.22
2018-05-31T02:34:14.646Z,99600.80
2018-05-31T02:36:42.239Z,99599.01
2018-05-31T02:39:09.847Z,99600.38
2018-05-31T02:41:37.436Z,99600.88
2018-05-31T02:44:05.036Z,99603.13
2018-05-31T02:46:32.646Z,99600.92
2018-05-31T02:49:00.250Z,99591.20
2018-05-31T02:51:27.836Z,99597.49
2018-05-31T02:53:55.477Z,99592.58
2018-05-31T02:56:23.088Z,99600.62
2018-05-31T02:58:50.689Z,99613.92
2018-05-31T03:01:18.292Z,99613.00
2018-05-31T03:03:45.904Z,99602.30
2018-05-31T03:06:13.522Z,99606.88
2018-05-31T03:08:42.063Z,99606.19
2018-05-31T03:11:09.696Z,99614.99
2018-05-31T03:13:37.273Z,99613.58
2018-05-31T03:16:04.838Z,99611.33
2018-05-31T03:18:32.425Z,99607.95
2018-05-31T03:21:00.055Z,99605.28
2018-05-31T03:23:27.719Z,99611.11
2018-05-31T03:25:55.353Z,99606.69
2018-05-31T03:28:22.990Z,99615.95
2018-05-31T03:30:50.654Z,99613.81
2018-05-31T03:33:18.279Z,99624.67
2018-05-31T03:35:45.893Z,99626.09
2018-05-31T03:38:13.512Z,99625.49
2018-05-31T03:40:41.633Z,99631.78
2018-05-31T03:43:09.244Z,99630.45
2018-05-31T03:45:36.834Z,99635.52
2018-05-31T03:48:04.477Z,99640.97
2018-05-31T03:50:32.101Z,99644.16
2018-05-31T03:52:59.729Z,99642.11
2018-05-31T03:55:27.346Z,99647.94
2018-05-31T03:57:54.958Z,99653.95
2018-05-31T04:00:22.571Z,99652.16
2018-05-31T04:02:50.351Z,99649.39
2018-05-31T04:05:17.992Z,99645.27
2018-05-31T04:07:45.626Z,99646.75
2018-05-31T04:10:13.177Z,99650.09
2018-05-31T04:12:40.871Z,99649.86
2018-05-31T04:15:09.329Z,99647.88
2018-05-31T04:17:36.918Z,99644.52
2018-05-31T04:20:04.557Z,99649.46
2018-05-31T04:22:32.198Z,99646.89
2018-05-31T04:24:59.802Z,99653.36
2018-05-31T04:27:27.377Z,99658.16
2018-05-31T04:29:54.993Z,99661.48
2018-05-31T04:32:22.594Z,99666.27
2018-05-31T04:34:50.260Z,99660.45
2018-05-31T04:37:17.890Z,99658.58
2018-05-31T04:39:45.607Z,99672.95
2018-05-31T04:42:13.253Z,99671.59
2018-05-31T04:44:40.873Z,99676.44
2018-05-31T04:47:08.471Z,99677.83
2018-05-31T04:49:36.144Z,99674.66
2018-05-31T04:52:03.800Z,99682.09
2018-05-31T04:54:31.419Z,99674.00
2018-05-31T04:56:58.972Z,99697.39
2018-05-31T04:59:26.685Z,99685.30
2018-05-31T05:01:54.343Z,99687.01
2018-05-31T05:04:21.924Z,99678.36
2018-05-31T05:06:49.494Z,99680.65
2018-05-31T05:09:17.140Z,99680.13
2018-05-31T05:11:44.742Z,99665.77
2018-05-31T05:14:12.340Z,99681.16
2018-05-31T05:16:39.938Z,99677.42
2018-05-31T05:19:07.575Z,99675.69
2018-05-31T05:21:35.208Z,99673.17
2018-05-31T05:24:02.813Z,99675.50
2018-05-31T05:26:30.461Z,99676.30
2018-05-31T05:28:58.012Z,99677.52
2018-05-31T05:31:25.660Z,99681.75
2018-05-31T05:33:53.305Z,99677.33
2018-05-31T05:36:20.868Z,99681.45
2018-05-31T05:38:49.030Z,99687.55
2018-05-31T05:41:16.614Z,99690.45
2018-05-31T05:43:44.227Z,99699.02
2018-05-31T05:46:11.793Z,99692.78
2018-05-31T05:48:39.396Z,99696.94
2018-05-31T05:51:06.952Z,99693.81
2018-05-31T05:53:34.514Z,99695.78
2018-05-31T05:56:02.062Z,99685.41
2018-05-31T05:58:29.642Z,99691.20
2018-05-31T06:00:57.193Z,99689.97
2018-05-31T06:03:24.738Z,99682.47
2018-05-31T06:05:52.297Z,99685.81
2018-05-31T06:08:19.842Z,99682.20
2018-05-31T06:10:47.420Z,99686.36
2018-05-31T06:13:14.960Z,99692.20
2018-05-31T06:15:42.561Z,99698.27
2018-05-31T06:18:10.218Z,99702.59
2018-05-31T06:20:37.803Z,99704.16
2018-05-31T06:23:05.360Z,99707.16
2018-05-31T06:25:32.930Z,99708.16
2018-05-31T06:28:00.483Z,99718.80
2018-05-31T06:30:28.053Z,99726.73
2018-05-31T06:32:55.587Z,99728.24
2018-05-31T06:35:23.228Z,99729.48
2018-05-31T06:40:22.811Z,99727.65
2018-05-31T06:42:50.965Z,99732.42
2018-05-31T06:45:18.599Z,99737.78
2018-05-31T06:47:46.250Z,99732.19
2018-05-31T06:50:13.927Z,99735.39
2018-05-31T06:52:41.465Z,99744.26
2018-05-31T06:55:09.032Z,99744.63
2018-05-31T06:57:36.574Z,99746.59
2018-05-31T07:00:04.116Z,99749.47
2018-05-31T07:02:31.681Z,99748.13
2018-05-31T07:04:59.323Z,99746.86
2018-05-31T07:07:26.999Z,99756.28
2018-05-31T07:09:54.902Z,99747.63
2018-05-31T07:12:22.488Z,99748.70
2018-05-31T07:14:50.117Z,99741.94
2018-05-31T07:17:17.647Z,99746.63
2018-05-31T07:19:45.213Z,99746.80
2018-05-31T07:22:12.764Z,99753.35
2018-05-31T07:24:40.374Z,99750.29
2018-05-31T07:27:07.990Z,99753.64
2018-05-31T07:29:35.569Z,99755.20
2018-05-31T07:32:03.125Z,99759.55
2018-05-31T07:34:30.671Z,99757.29
2018-05-31T07:36:58.237Z,99755.91
2018-05-31T07:39:25.786Z,99756.38
2018-05-31T07:41:53.381Z,99756.84
2018-05-31T07:44:20.989Z,99756.99
2018-05-31T07:46:48.530Z,99746.16
2018-05-31T07:49:16.111Z,99746.63
2018-05-31T07:51:43.743Z,99744.94
2018-05-31T07:54:11.363Z,99745.77
2018-05-31T07:56:38.919Z,99741.89
2018-05-31T07:59:06.514Z,99740.36
2018-05-31T08:01:34.105Z,99744.48
2018-05-31T08:04:01.697Z,99746.88
2018-05-31T08:06:29.252Z,99747.39
2018-05-31T08:08:56.817Z,99743.95
2018-05-31T08:11:24.396Z,99741.53
2018-05-31T08:13:51.936Z,99745.30
2018-05-31T08:16:19.530Z,99745.08
2018-05-31T08:18:47.109Z,99747.17
2018-05-31T08:21:14.713Z,99746.42
2018-05-31T08:23:42.312Z,99744.67
2018-05-31T08:26:09.935Z,99743.79
2018-05-31T08:28:37.535Z,99754.45
2018-05-31T08:31:05.141Z,99745.70
2018-05-31T08:33:32.689Z,99751.98
2018-05-31T08:36:00.254Z,99749.09
2018-05-31T08:38:27.829Z,99749.63
2018-05-31T08:40:55.449Z,99749.53
2018-05-31T08:43:23.011Z,99750.42
2018-05-31T08:45:50.601Z,99751.68
2018-05-31T08:48:18.188Z,99754.59
2018-05-31T08:50:45.778Z,99762.67
2018-05-31T08:53:13.390Z,99754.80
2018-05-31T08:55:41.015Z,99753.25
2018-05-31T08:58:08.707Z,99760.58
2018-05-31T09:00:36.315Z,99758.09
2018-05-31T09:03:03.886Z,99754.18
2018-05-31T09:05:31.433Z,99746.95
2018-05-31T09:07:59.031Z,99752.40
2018-05-31T09:10:26.638Z,99755.28
2018-05-31T09:12:54.206Z,99755.20
2018-05-31T09:15:21.788Z,99758.93
2018-05-31T09:17:49.414Z,99757.58
2018-05-31T09:20:16.997Z,99756.38
2018-05-31T09:22:44.581Z,99755.28
2018-05-31T09:25:12.212Z,99749.48
2018-05-31T09:27:39.767Z,99760.73
2018-05-31T09:30:07.385Z,99752.64
2018-05-31T09:32:34.997Z,99748.76
2018-05-31T09:35:02.660Z,99759.69
2018-05-31T09:37:30.212Z,99755.73
2018-05-31T09:39:57.765Z,99753.27
2018-05-31T09:42:25.317Z,99752.73
2018-05-31T09:44:53.029Z,99747.50
2018-05-31T09:47:20.708Z,99749.64
2018-05-31T09:49:48.278Z,99744.73
2018-05-31T09:52:15.842Z,99752.86
2018-05-31T09:54:43.433Z,99754.08
2018-05-31T09:57:11.065Z,99752.77
2018-05-31T09:59:38.741Z,99748.22
2018-05-31T10:02:06.308Z,99744.28
2018-05-31T10:04:33.869Z,99744.89
2018-05-31T10:07:02.034Z,99747.64
2018-05-31T10:09:29.616Z,99753.55
2018-05-31T10:11:57.210Z,99753.83
2018-05-31T10:14:24.812Z,99756.58
2018-05-31T10:16:52.426Z,99758.47
2018-05-31T10:19:19.998Z,99760.38
2018-05-31T10:21:47.575Z,99756.24
2018-05-31T10:24:15.160Z,99754.92
2018-05-31T10:26:42.754Z,99750.77
2018-05-31T10:29:10.295Z,99758.44
2018-05-31T10:31:37.897Z,99755.53
2018-05-31T10:34:07.400Z,99753.39
2018-05-31T10:36:36.465Z,99753.28
2018-05-31T10:39:05.205Z,99755.70
2018-05-31T10:41:32.814Z,99752.32
2018-05-31T10:44:01.018Z,99746.48
2018-05-31T10:46:28.699Z,99748.52
2018-05-31T10:48:56.271Z,99738.92
2018-05-31T10:51:23.969Z,99737.39
2018-05-31T10:53:51.609Z,99733.88
2018-05-31T10:56:19.164Z,99733.56
2018-05-31T10:58:46.734Z,99728.78
2018-05-31T11:01:14.254Z,99727.56
2018-05-31T11:03:41.872Z,99721.73
2018-05-31T11:06:09.397Z,99719.30
2018-05-31T11:08:36.976Z,99720.09
2018-05-31T11:11:04.528Z,99722.56
2018-05-31T11:13:32.116Z,99718.97
2018-05-31T11:15:59.704Z,99718.59
2018-05-31T11:18:27.247Z,99722.86
2018-05-31T11:20:54.796Z,99712.73
2018-05-31T11:23:22.344Z,99705.56
2018-05-31T11:25:49.936Z,99715.70
2018-05-31T11:28:17.554Z,99715.78
2018-05-31T11:30:45.113Z,99716.42
2018-05-31T11:33:12.715Z,99726.30
2018-05-31T11:35:40.331Z,99722.02
2018-05-31T11:38:07.892Z,99725.09
2018-05-31T11:40:35.514Z,99729.96
2018-05-31T11:43:03.139Z,99728.02
2018-05-31T11:45:30.737Z,99733.62
2018-05-31T11:47:58.325Z,99736.86
2018-05-31T11:50:25.889Z,99728.15
2018-05-31T11:52:53.429Z,99730.80
2018-05-31T11:55:21.030Z,99739.70
2018-05-31T11:57:48.610Z,99737.09
2018-05-31T12:00:16.243Z,99717.99
2018-05-31T12:02:43.841Z,99727.05
2018-05-31T12:05:11.424Z,99735.92
2018-05-31T12:07:38.996Z,99735.27
2018-05-31T12:10:06.663Z,99727.13
2018-05-31T12:12:34.259Z,99717.54
2018-05-31T12:15:01.834Z,99719.16
2018-05-31T12:17:29.476Z,99712.63
2018-05-31T12:19:57.077Z,99713.27
2018-05-31T12:22:24.622Z,99707.05
2018-05-31T12:24:52.207Z,99704.84
2018-05-31T12:27:19.853Z,99706.34
2018-05-31T12:29:47.422Z,99715.31
2018-05-31T12:32:15.043Z,99717.02
2018-05-31T12:34:42.646Z,99722.63
2018-05-31T12:37:10.163Z,99725.70
2018-05-31T12:39:38.926Z,99694.56
2018-05-31T12:42:06.557Z,99727.73
2018-05-31T12:44:34.198Z,99720.67
2018-05-31T12:47:01.790Z,99713.08
2018-05-31T12:49:29.421Z,99710.09
2018-05-31T12:51:57.033Z,99720.09
2018-05-31T12:54:24.601Z,99715.03
2018-05-31T12:56:52.180Z,99701.80
2018-05-31T12:59:19.745Z,99698.55
2018-05-31T13:01:47.563Z,99694.79
2018-05-31T13:04:15.158Z,99687.38
2018-05-31T13:06:42.757Z,99685.88
2018-05-31T13:09:11.238Z,99685.59
2018-05-31T13:11:38.830Z,99680.14
2018-05-31T13:14:06.357Z,99683.11
2018-05-31T13:16:33.941Z,99689.67
2018-05-31T13:19:01.597Z,99684.11
2018-05-31T13:21:29.207Z,99695.83
2018-05-31T13:23:56.774Z,99696.91
2018-05-31T13:26:24.452Z,99699.08
2018-05-31T13:28:52.026Z,99697.89
2018-05-31T13:31:19.657Z,99704.64
2018-05-31T13:33:47.198Z,99704.11
2018-05-31T13:36:14.827Z,99691.64
2018-05-31T13:38:42.406Z,99686.69
2018-05-31T13:41:10.136Z,99681.91
2018-05-31T13:43:37.724Z,99674.16
2018-05-31T13:46:05.407Z,99679.66
2018-05-31T13:48:33.071Z,99687.08
2018-05-31T13:51:00.722Z,99689.22
2018-05-31T13:53:28.310Z,99704.89
2018-05-31T13:55:55.890Z,99706.50
2018-05-31T13:58:23.511Z,99706.25
2018-05-31T14:00:51.110Z,99710.93
2018-05-31T14:03:18.797Z,99712.38
2018-05-31T14:05:46.453Z,99708.08
2018-05-31T14:08:14.159Z,99707.22
2018-05-31T14:10:41.806Z,99708.77
2018-05-31T14:13:09.565Z,99694.66
2018-05-31T14:15:37.297Z,99695.59
2018-05-31T14:18:05.066Z,99690.49
2018-05-31T14:20:32.832Z,99430.63
2018-05-31T14:23:00.430Z,99684.36
2018-05-31T14:25:28.567Z,99683.34
2018-05-31T14:27:56.253Z,99681.11
2018-05-31T14:30:23.779Z,99671.73
2018-05-31T14:32:51.574Z,99672.75
2018-05-31T14:35:19.210Z,99672.08
2018-05-31T14:37:46.996Z,99665.37
2018-05-31T14:40:14.676Z,99660.70
2018-05-31T14:42:42.312Z,99657.93
2018-05-31T14:45:09.939Z,99658.09
2018-05-31T14:47:37.535Z,99652.30
2018-05-31T14:50:05.123Z,99649.09
2018-05-31T14:52:36.473Z,99650.97
2018-05-31T14:55:04.059Z,99654.04
2018-05-31T14:57:31.652Z,99646.06
2018-05-31T14:59:59.322Z,99643.33
2018-05-31T15:02:26.954Z,99648.01
2018-05-31T15:04:54.532Z,99645.86
2018-05-31T15:07:22.115Z,99644.01
2018-05-31T15:09:49.711Z,99646.91
2018-05-31T15:12:17.268Z,99646.14
2018-05-31T15:14:44.845Z,99657.01
2018-05-31T15:17:12.479Z,99652.66
2018-05-31T15:19:40.056Z,99648.66
2018-05-31T15:22:07.611Z,99657.97
2018-05-31T15:24:35.133Z,99659.00
2018-05-31T15:27:02.694Z,99656.64
2018-05-31T15:29:30.294Z,99653.83
2018-05-31T15:31:57.889Z,99652.77
2018-05-31T15:34:25.446Z,99656.83
2018-05-31T15:36:53.029Z,99651.00
2018-05-31T15:39:20.603Z,99652.09
2018-05-31T15:41:48.162Z,99652.44
2018-05-31T15:44:15.754Z,99652.95
2018-05-31T15:46:43.341Z,99655.00
2018-05-31T15:49:10.917Z,99657.08
2018-05-31T15:51:38.472Z,99656.69
2018-05-31T15:54:06.079Z,99653.91
2018-05-31T15:56:33.662Z,99644.89
2018-05-31T15:59:01.275Z,99642.63
2018-05-31T16:01:28.819Z,99649.19
2018-05-31T16:03:56.401Z,99645.02
2018-05-31T16:06:23.965Z,99642.81
2018-05-31T16:08:51.526Z,99642.06
2018-05-31T16:11:19.161Z,99632.71
2018-05-31T16:13:46.775Z,99627.36
2018-05-31T16:16:14.367Z,99630.68
2018-05-31T16:18:41.944Z,99628.66
2018-05-31T16:21:09.914Z,99632.20
2018-05-31T16:23:38.738Z,99636.08
2018-05-31T16:26:06.400Z,99628.18
2018-05-31T16:28:34.057Z,99620.80
2018-05-31T16:31:01.667Z,99623.16
2018-05-31T16:33:29.553Z,99619.11
2018-05-31T16:35:57.199Z,99627.17
2018-05-31T16:38:24.795Z,99624.19
2018-05-31T16:40:52.420Z,99616.22
2018-05-31T16:43:20.153Z,99620.33
2018-05-31T16:45:48.728Z,99618.20
2018-05-31T16:48:16.384Z,99621.66
2018-05-31T16:50:43.972Z,99612.09
2018-05-31T16:53:12.026Z,99614.88
2018-05-31T16:55:39.610Z,99616.07
2018-05-31T16:58:07.243Z,99612.92
2018-05-31T17:00:34.771Z,99613.61
2018-05-31T17:03:02.390Z,99619.98
2018-05-31T17:05:30.023Z,99614.62
2018-05-31T17:07:57.741Z,99621.39
2018-05-31T17:10:25.327Z,99625.11
2018-05-31T17:12:52.899Z,99622.31
2018-05-31T17:15:20.461Z,99621.66
2018-05-31T17:17:48.044Z,99615.38
2018-05-31T17:20:15.626Z,99622.06
2018-05-31T17:22:43.216Z,99619.18
2018-05-31T17:25:10.796Z,99621.98
2018-05-31T17:27:38.358Z,99621.89
2018-05-31T17:30:05.988Z,99621.95
2018-05-31T17:32:33.593Z,99625.11
2018-05-31T17:35:01.161Z,99624.09
2018-05-31T17:37:28.716Z,99621.43
2018-05-31T17:39:56.332Z,99620.13
2018-05-31T17:42:23.920Z,99622.98
2018-05-31T17:44:51.534Z,99631.20
2018-05-31T17:47:19.092Z,99634.02
2018-05-31T17:49:46.677Z,99641.69
2018-05-31T17:52:14.231Z,99638.64
2018-05-31T17:54:41.823Z,99644.67
2018-05-31T17:57:09.388Z,99638.29
2018-05-31T17:59:37.006Z,99647.80
2018-05-31T18:02:04.571Z,99651.50
2018-05-31T18:04:32.131Z,99654.77
2018-05-31T18:06:59.905Z,99657.14
2018-05-31T18:09:27.485Z,99658.01
2018-05-31T18:11:55.053Z,99660.20
2018-05-31T18:14:22.697Z,99660.94
2018-05-31T18:16:50.221Z,99666.16
2018-05-31T18:19:18.805Z,99669.78
2018-05-31T18:21:46.354Z,99677.44
2018-05-31T18:24:13.941Z,99670.64
2018-05-31T18:26:41.503Z,99673.05
2018-05-31T18:29:09.093Z,99662.34
2018-05-31T18:31:36.693Z,99654.34
2018-05-31T18:34:04.234Z,99656.20
2018-05-31T18:36:31.829Z,99661.47
2018-05-31T18:38:59.419Z,99662.27
2018-05-31T18:41:26.983Z,99666.33
2018-05-31T18:43:54.537Z,99667.78
2018-05-31T18:46:22.116Z,99666.56
2018-05-31T18:48:49.683Z,99664.31
2018-05-31T18:51:20.277Z,99657.04
2018-05-31T18:53:47.832Z,99656.63
2018-05-31T18:56:15.415Z,99655.08
2018-05-31T18:58:42.974Z,99641.74
2018-05-31T19:01:10.626Z,99660.28
2018-05-31T19:03:38.169Z,99657.71
2018-05-31T19:06:05.796Z,99659.73
2018-05-31T19:08:33.363Z,99658.31
2018-05-31T19:11:01.002Z,99656.86
2018-05-31T19:13:34.181Z,99667.25
2018-05-31T19:16:01.768Z,99665.45
2018-05-31T19:18:34.866Z,99667.53
2018-05-31T19:21:02.487Z,99675.71
2018-05-31T19:23:30.084Z,99678.93
2018-05-31T19:25:57.696Z,99685.41
2018-05-31T19:28:25.287Z,99690.92
2018-05-31T19:30:58.406Z,99699.14
2018-05-31T19:33:25.989Z,99700.40
2018-05-31T19:35:59.198Z,99708.62
2018-05-31T19:38:26.753Z,99710.52
2018-05-31T19:40:54.351Z,99713.09
2018-05-31T19:43:27.551Z,99725.05
2018-05-31T19:45:55.138Z,99713.32
2018-05-31T19:48:22.724Z,99716.01
2018-05-31T19:50:50.316Z,99715.44
2018-05-31T19:53:23.513Z,99720.27
2018-05-31T19:55:51.174Z,99725.45
2018-05-31T19:58:24.362Z,99725.12
2018-05-31T20:00:57.551Z,99728.98
2018-05-31T20:03:30.665Z,99731.53
2018-05-31T20:05:58.267Z,99737.14
2018-05-31T20:08:25.828Z,99738.86
2018-05-31T20:10:53.424Z,99749.98
2018-05-31T20:13:21.078Z,99749.20
2018-05-31T20:15:48.716Z,99752.27
2018-05-31T20:18:16.411Z,99757.25
2018-05-31T20:20:43.961Z,99763.73
2018-05-31T20:23:11.597Z,99760.73
2018-05-31T20:25:39.219Z,99762.55
2018-05-31T20:28:06.834Z,99762.73
2018-05-31T20:30:34.413Z,99755.56
2018-05-31T20:33:01.999Z,99751.47
2018-05-31T20:35:29.629Z,99746.09
2018-05-31T20:37:57.626Z,99749.19
2018-05-31T20:40:25.215Z,99745.20
2018-05-31T20:42:52.797Z,99748.10
2018-05-31T20:45:20.435Z,99749.25
2018-05-31T20:47:47.997Z,99749.44
2018-05-31T20:50:15.584Z,99743.70
2018-05-31T20:52:43.195Z,99738.12
2018-05-31T20:55:10.787Z,99736.97
2018-05-31T20:57:38.474Z,99734.50
2018-05-31T21:00:06.097Z,99728.14
2018-05-31T21:02:34.309Z,99717.80
2018-05-31T21:05:01.886Z,99720.84
2018-05-31T21:07:29.534Z,99717.16
2018-05-31T21:09:57.133Z,99725.83
2018-05-31T21:12:24.719Z,99723.44
2018-05-31T21:14:52.343Z,99722.44
2018-05-31T21:17:19.944Z,99722.73
2018-05-31T21:19:47.535Z,99716.69
2018-05-31T21:22:15.096Z,99710.33
2018-05-31T21:24:42.670Z,99719.82
2018-05-31T21:27:10.343Z,99722.34
2018-05-31T21:29:37.924Z,99720.84
2018-05-31T21:32:05.504Z,99716.74
2018-05-31T21:34:33.078Z,99714.95
2018-05-31T21:37:00.746Z,99719.98
2018-05-31T21:39:28.304Z,99721.86
2018-05-31T21:41:55.890Z,99722.48
2018-05-31T21:44:23.453Z,99725.19
2018-05-31T21:46:51.038Z,99729.48
2018-05-31T21:49:18.636Z,99733.75
2018-05-31T21:51:46.170Z,99727.33
2018-05-31T21:54:13.763Z,99731.12
2018-05-31T21:56:42.618Z,99736.72
2018-05-31T21:59:10.208Z,99737.94
2018-05-31T22:01:37.826Z,99742.02
2018-05-31T22:04:05.416Z,99743.13
2018-05-31T22:06:33.356Z,99740.63
2018-05-31T22:09:00.942Z,99737.13
2018-05-31T22:11:28.727Z,99743.04
2018-05-31T22:13:56.290Z,99743.64
2018-05-31T22:16:23.966Z,99740.64
2018-05-31T22:18:51.584Z,99730.98
2018-05-31T22:21:19.209Z,99730.66
2018-05-31T22:23:47.070Z,99720.13
2018-05-31T22:26:14.645Z,99721.14
2018-05-31T22:28:42.225Z,99710.89
2018-05-31T22:31:10.280Z,99710.95
2018-05-31T22:33:37.949Z,99701.05
2018-05-31T22:36:05.545Z,99698.42
2018-05-31T22:38:33.163Z,99705.86
2018-05-31T22:41:00.730Z,99703.41
2018-05-31T22:43:28.354Z,99707.00
2018-05-31T22:45:55.980Z,99704.34
2018-05-31T22:48:23.567Z,99705.26
2018-05-31T22:50:51.197Z,99704.11
2018-05-31T22:53:18.856Z,99704.28
2018-05-31T22:55:46.476Z,99700.73
2018-05-31T22:58:14.071Z,99694.91
2018-05-31T23:00:41.670Z,99695.33
2018-05-31T23:03:09.209Z,99694.96
2018-05-31T23:05:37.426Z,99695.97
2018-05-31T23:08:05.112Z,99690.89
2018-05-31T23:10:32.721Z,99684.88
2018-05-31T23:13:00.303Z,99679.75
2018-05-31T23:15:27.880Z,99685.75
2018-05-31T23:17:55.996Z,99680.11
2018-05-31T23:20:23.596Z,99677.20
2018-05-31T23:22:51.150Z,99679.52
2018-05-31T23:25:18.711Z,99682.83
2018-05-31T23:27:46.361Z,99683.00
2018-05-31T23:30:14.747Z,99685.12
2018-05-31T23:32:42.340Z,99692.55
2018-05-31T23:35:09.985Z,99690.59
2018-05-31T23:37:37.587Z,99686.24
2018-05-31T23:40:05.177Z,99689.60
2018-05-31T23:42:32.717Z,99688.45
2018-05-31T23:45:00.299Z,99701.95
2018-05-31T23:47:27.877Z,99697.06
2018-05-31T23:49:55.457Z,99694.56
2018-05-31T23:52:23.036Z,99694.66
2018-05-31T23:54:50.615Z,99705.57
2018-05-31T23:57:18.192Z,99713.33
2018-05-31T23:59:45.808Z,99712.55
